Time,TemperatureF,DewpointF,PressureIn,WindDirection,WindDirectionDegrees,WindSpeedMPH,WindSpeedGustMPH,Humidity,HourlyPrecipIn,Conditions,Clouds,dailyrainin,SoftwareType,DateUTC
2013-05-10 00:03:00,67.3,55.0,29.91,SW,221,0.0,-999.0,66,-99.99,,,0.01,weatherlink.com 1.10,2013-05-10 04:03:00,
2013-05-10 00:18:00,67.7,55.0,29.91,South,178,0.0,-999.0,65,-99.99,,,0.01,weatherlink.com 1.10,2013-05-10 04:18:00,
2013-05-10 00:33:00,68.1,56.0,29.91,North,1,2.0,-999.0,65,-99.99,,,0.01,weatherlink.com 1.10,2013-05-10 04:33:00,
2013-05-10 00:48:00,67.6,57.0,29.92,West,264,2.0,-999.0,68,-99.99,,,0.01,weatherlink.com 1.10,2013-05-10 04:48:00,
2013-05-10 01:03:00,66.5,58.0,29.92,SW,214,0.0,-999.0,73,-99.99,,,0.01,weatherlink.com 1.10,2013-05-10 05:03:00,
2013-05-10 01:18:00,65.5,58.0,29.91,West,280,0.0,-999.0,77,-99.99,,,0.01,weatherlink.com 1.10,2013-05-10 05:18:00,
2013-05-10 01:33:00,65.2,58.0,29.90,West,264,0.0,-999.0,78,-99.99,,,0.01,weatherlink.com 1.10,2013-05-10 05:33:00,
2013-05-10 01:48:00,64.6,58.0,29.89,West,277,0.0,-999.0,80,-99.99,,,0.03,weatherlink.com 1.10,2013-05-10 05:48:00,
2013-05-10 02:03:00,63.4,59.0,29.87,East,97,2.0,-999.0,85,-99.99,,,0.05,weatherlink.com 1.10,2013-05-10 06:03:00,
2013-05-10 02:18:00,63.0,59.0,29.86,West,270,0.0,-999.0,88,-99.99,,,0.05,weatherlink.com 1.10,2013-05-10 06:18:00,
2013-05-10 02:33:00,62.1,60.0,29.86,West,270,0.0,-999.0,91,-99.99,,,0.05,weatherlink.com 1.10,2013-05-10 06:33:00,
2013-05-10 02:48:00,62.1,60.0,29.86,West,270,0.0,-999.0,92,-99.99,,,0.05,weatherlink.com 1.10,2013-05-10 06:48:00,
2013-05-10 03:03:00,62.0,60.0,29.86,South,171,1.0,-999.0,92,-99.99,,,0.05,weatherlink.com 1.10,2013-05-10 07:03:00,
2013-05-10 03:18:00,62.0,60.0,29.86,SSE,165,1.0,-999.0,92,-99.99,,,0.06,weatherlink.com 1.10,2013-05-10 07:18:00,
2013-05-10 03:33:00,62.0,59.0,29.86,SE,124,4.0,-999.0,91,-99.99,,,0.08,weatherlink.com 1.10,2013-05-10 07:33:00,
2013-05-10 03:48:00,62.0,60.0,29.85,East,98,5.0,-999.0,92,-99.99,,,0.13,weatherlink.com 1.10,2013-05-10 07:48:00,
2013-05-10 04:03:00,61.1,60.0,29.82,East,93,2.0,-999.0,95,-99.99,,,0.16,weatherlink.com 1.10,2013-05-10 08:03:00,
2013-05-10 04:18:00,60.7,60.0,29.81,ESE,103,4.0,-999.0,96,-99.99,,,0.00,weatherlink.com 1.10,2013-05-10 08:18:00,
2013-05-10 04:33:00,60.8,60.0,29.81,ESE,115,1.0,-999.0,97,-99.99,,,0.01,weatherlink.com 1.10,2013-05-10 08:33:00,
2013-05-10 04:48:00,61.0,60.0,29.81,SSE,160,1.0,-999.0,97,-99.99,,,0.03,weatherlink.com 1.10,2013-05-10 08:48:00,
2013-05-10 05:03:00,61.1,60.0,29.80,SW,228,1.0,-999.0,97,-99.99,,,0.09,weatherlink.com 1.10,2013-05-10 09:03:00,
2013-05-10 05:18:00,60.8,60.0,29.80,SE,145,1.0,-999.0,97,-99.99,,,0.18,weatherlink.com 1.10,2013-05-10 09:18:00,
2013-05-10 05:33:00,60.7,60.0,29.79,SE,139,5.0,-999.0,97,-99.99,,,0.24,weatherlink.com 1.10,2013-05-10 09:33:00,
2013-05-10 05:48:00,61.0,61.0,29.78,SSW,193,3.0,-999.0,98,-99.99,,,0.26,weatherlink.com 1.10,2013-05-10 09:48:00,
2013-05-10 06:03:00,61.2,61.0,29.78,South,190,2.0,-999.0,98,-99.99,,,0.26,weatherlink.com 1.10,2013-05-10 10:03:00,
2013-05-10 06:18:00,61.3,61.0,29.78,West,271,3.0,-999.0,98,-99.99,,,0.26,weatherlink.com 1.10,2013-05-10 10:18:00,
2013-05-10 06:33:00,61.8,62.0,29.78,West,269,1.0,-999.0,100,-99.99,,,0.26,weatherlink.com 1.10,2013-05-10 10:33:00,
2013-05-10 06:48:00,-999.0,-99.9,29.78,North,-999,-999.0,-999.0,-999,-99.99,,,0.26,weatherlink.com 1.10,2013-05-10 10:48:00,
2013-05-10 07:03:00,-999.0,-99.9,29.77,North,-999,-999.0,-999.0,-999,-99.99,,,0.26,weatherlink.com 1.10,2013-05-10 11:03:00,
2013-05-10 07:18:00,-999.0,-99.9,29.77,North,-999,-999.0,-999.0,-999,-99.99,,,0.26,weatherlink.com 1.10,2013-05-10 11:18:00,
2013-05-10 07:33:00,62.3,62.0,29.78,SSW,193,6.0,-999.0,97,-99.99,,,0.26,weatherlink.com 1.10,2013-05-10 11:33:00,
2013-05-10 07:48:00,62.3,62.0,29.78,South,171,4.0,-999.0,97,-99.99,,,0.26,weatherlink.com 1.10,2013-05-10 11:48:00,
2013-05-10 08:03:00,62.6,62.0,29.78,SW,226,4.0,-999.0,97,-99.99,,,0.26,weatherlink.com 1.10,2013-05-10 12:03:00,
2013-05-10 08:18:00,62.8,62.0,29.78,SW,214,3.0,-999.0,97,-99.99,,,0.26,weatherlink.com 1.10,2013-05-10 12:18:00,
2013-05-10 08:33:00,63.9,63.0,29.78,South,184,4.0,-999.0,97,-99.99,,,0.26,weatherlink.com 1.10,2013-05-10 12:33:00,
2013-05-10 08:48:00,64.2,63.0,29.78,SE,139,4.0,-999.0,96,-99.99,,,0.26,weatherlink.com 1.10,2013-05-10 12:48:00,
2013-05-10 09:03:00,64.8,63.0,29.78,NW,308,3.0,-999.0,92,-99.99,,,0.26,weatherlink.com 1.10,2013-05-10 13:03:00,
2013-05-10 09:18:00,65.2,62.0,29.78,SSW,200,4.0,-999.0,88,-99.99,,,0.26,weatherlink.com 1.10,2013-05-10 13:18:00,
2013-05-10 09:33:00,65.1,62.0,29.78,South,181,3.0,-999.0,89,-99.99,,,0.26,weatherlink.com 1.10,2013-05-10 13:33:00,
2013-05-10 09:48:00,64.6,62.0,29.78,NW,314,0.0,-999.0,90,-99.99,,,0.27,weatherlink.com 1.10,2013-05-10 13:48:00,
2013-05-10 10:03:00,64.6,62.0,29.78,WNW,283,2.0,-999.0,91,-99.99,,,0.27,weatherlink.com 1.10,2013-05-10 14:03:00,
2013-05-10 10:18:00,65.6,62.0,29.77,WNW,289,4.0,-999.0,89,-99.99,,,0.27,weatherlink.com 1.10,2013-05-10 14:18:00,
2013-05-10 10:33:00,66.1,62.0,29.77,SSW,205,4.0,-999.0,87,-99.99,,,0.27,weatherlink.com 1.10,2013-05-10 14:33:00,
2013-05-10 10:48:00,67.9,63.0,29.77,SE,127,5.0,-999.0,85,-99.99,,,0.27,weatherlink.com 1.10,2013-05-10 14:48:00,
2013-05-10 11:03:00,68.0,63.0,29.77,SW,221,1.0,-999.0,83,-99.99,,,0.27,weatherlink.com 1.10,2013-05-10 15:03:00,
2013-05-10 11:18:00,68.9,63.0,29.77,NW,323,3.0,-999.0,81,-99.99,,,0.27,weatherlink.com 1.10,2013-05-10 15:18:00,
2013-05-10 11:33:00,70.4,63.0,29.77,WSW,257,2.0,-999.0,76,-99.99,,,0.27,weatherlink.com 1.10,2013-05-10 15:33:00,
2013-05-10 11:48:00,70.4,63.0,29.77,WSW,243,2.0,-999.0,76,-99.99,,,0.27,weatherlink.com 1.10,2013-05-10 15:48:00,
2013-05-10 12:03:00,70.1,62.0,29.77,West,280,0.0,-999.0,76,-99.99,,,0.27,weatherlink.com 1.10,2013-05-10 16:03:00,
2013-05-10 12:18:00,70.8,62.0,29.77,SW,224,3.0,-999.0,74,-99.99,,,0.27,weatherlink.com 1.10,2013-05-10 16:18:00,
2013-05-10 12:33:00,71.1,62.0,29.77,West,280,6.0,-999.0,74,-99.99,,,0.27,weatherlink.com 1.10,2013-05-10 16:33:00,
2013-05-10 12:48:00,72.6,62.0,29.77,ENE,67,3.0,-999.0,69,-99.99,,,0.27,weatherlink.com 1.10,2013-05-10 16:48:00,
2013-05-10 13:03:00,73.5,63.0,29.76,SW,233,3.0,-999.0,69,-99.99,,,0.27,weatherlink.com 1.10,2013-05-10 17:03:00,
2013-05-10 13:18:00,73.8,62.0,29.75,WNW,293,2.0,-999.0,67,-99.99,,,0.27,weatherlink.com 1.10,2013-05-10 17:18:00,
2013-05-10 13:33:00,74.2,62.0,29.75,WNW,283,7.0,-999.0,66,-99.99,,,0.27,weatherlink.com 1.10,2013-05-10 17:33:00,
2013-05-10 13:48:00,74.5,62.0,29.75,SSW,200,2.0,-999.0,65,-99.99,,,0.27,weatherlink.com 1.10,2013-05-10 17:48:00,
2013-05-10 14:03:00,74.9,61.0,29.75,SSE,165,3.0,-999.0,62,-99.99,,,0.27,weatherlink.com 1.10,2013-05-10 18:03:00,
2013-05-10 14:18:00,74.6,62.0,29.75,NNW,330,5.0,-999.0,65,-99.99,,,0.27,weatherlink.com 1.10,2013-05-10 18:18:00,
2013-05-10 14:33:00,74.4,60.0,29.75,SW,231,5.0,-999.0,62,-99.99,,,0.27,weatherlink.com 1.10,2013-05-10 18:33:00,
2013-05-10 14:48:00,74.8,61.0,29.74,West,260,6.0,-999.0,63,-99.99,,,0.27,weatherlink.com 1.10,2013-05-10 18:48:00,
2013-05-10 15:03:00,73.5,61.0,29.75,WNW,291,5.0,-999.0,65,-99.99,,,0.27,weatherlink.com 1.10,2013-05-10 19:03:00,
2013-05-10 15:18:00,73.6,62.0,29.73,NNE,13,1.0,-999.0,66,-99.99,,,0.27,weatherlink.com 1.10,2013-05-10 19:18:00,
2013-05-10 15:33:00,73.9,60.0,29.73,SW,214,3.0,-999.0,62,-99.99,,,0.27,weatherlink.com 1.10,2013-05-10 19:33:00,
2013-05-10 15:48:00,74.2,60.0,29.73,WSW,245,8.0,-999.0,62,-99.99,,,0.27,weatherlink.com 1.10,2013-05-10 19:48:00,
2013-05-10 16:03:00,74.0,61.0,29.73,SW,232,3.0,-999.0,63,-99.99,,,0.27,weatherlink.com 1.10,2013-05-10 20:03:00,
2013-05-10 16:18:00,73.3,60.0,29.72,WNW,283,2.0,-999.0,63,-99.99,,,0.27,weatherlink.com 1.10,2013-05-10 20:18:00,
2013-05-10 16:33:00,72.1,60.0,29.73,WNW,293,3.0,-999.0,65,-99.99,,,0.27,weatherlink.com 1.10,2013-05-10 20:33:00,
2013-05-10 16:48:00,71.6,60.0,29.72,ESE,111,3.0,-999.0,66,-99.99,,,0.27,weatherlink.com 1.10,2013-05-10 20:48:00,
2013-05-10 17:03:00,69.2,61.0,29.73,NW,316,4.0,-999.0,74,-99.99,,,0.27,weatherlink.com 1.10,2013-05-10 21:03:00,
2013-05-10 17:18:00,67.9,60.0,29.72,NW,323,4.0,-999.0,76,-99.99,,,0.27,weatherlink.com 1.10,2013-05-10 21:18:00,
2013-05-10 17:33:00,67.7,60.0,29.73,North,351,3.0,-999.0,77,-99.99,,,0.27,weatherlink.com 1.10,2013-05-10 21:33:00,
2013-05-10 18:03:00,64.5,57.0,29.73,NNW,333,6.0,-999.0,77,-99.99,,,0.27,weatherlink.com 1.10,2013-05-10 22:03:00,
2013-05-10 18:18:00,63.6,56.0,29.73,NW,312,8.0,-999.0,76,-99.99,,,0.27,weatherlink.com 1.10,2013-05-10 22:18:00,
2013-05-10 18:33:00,62.0,55.0,29.73,NW,315,9.0,-999.0,77,-99.99,,,0.27,weatherlink.com 1.10,2013-05-10 22:33:00,
2013-05-10 18:48:00,61.1,54.0,29.74,NW,314,7.0,-999.0,78,-99.99,,,0.27,weatherlink.com 1.10,2013-05-10 22:48:00,
2013-05-10 19:03:00,59.7,53.0,29.75,WNW,303,7.0,-999.0,79,-99.99,,,0.27,weatherlink.com 1.10,2013-05-10 23:03:00,
2013-05-10 19:18:00,58.2,52.0,29.75,NW,322,3.0,-999.0,81,-99.99,,,0.27,weatherlink.com 1.10,2013-05-10 23:18:00,
2013-05-10 19:33:00,57.4,52.0,29.76,WNW,291,6.0,-999.0,81,-99.99,,,0.27,weatherlink.com 1.10,2013-05-10 23:33:00,
2013-05-10 19:48:00,56.7,51.0,29.76,NW,318,6.0,-999.0,80,-99.99,,,0.27,weatherlink.com 1.10,2013-05-10 23:48:00,
2013-05-10 20:03:00,56.0,50.0,29.77,NNW,339,8.0,-999.0,80,-99.99,,,0.27,weatherlink.com 1.10,2013-05-11 00:03:00,
2013-05-10 20:18:00,54.1,48.0,29.78,NW,315,7.0,-999.0,81,-99.99,,,0.27,weatherlink.com 1.10,2013-05-11 00:18:00,
2013-05-10 20:33:00,52.8,48.0,29.78,NW,308,5.0,-999.0,83,-99.99,,,0.27,weatherlink.com 1.10,2013-05-11 00:33:00,
2013-05-10 20:48:00,52.0,47.0,29.79,NW,321,3.0,-999.0,83,-99.99,,,0.27,weatherlink.com 1.10,2013-05-11 00:48:00,
2013-05-10 21:03:00,51.1,46.0,29.80,NW,305,7.0,-999.0,83,-99.99,,,0.27,weatherlink.com 1.10,2013-05-11 01:03:00,
2013-05-10 21:18:00,50.5,46.0,29.80,North,358,7.0,-999.0,83,-99.99,,,0.27,weatherlink.com 1.10,2013-05-11 01:18:00,
2013-05-10 21:33:00,49.7,45.0,29.81,NNW,346,7.0,-999.0,84,-99.99,,,0.27,weatherlink.com 1.10,2013-05-11 01:33:00,
2013-05-10 21:48:00,49.0,44.0,29.82,NW,316,6.0,-999.0,83,-99.99,,,0.27,weatherlink.com 1.10,2013-05-11 01:48:00,
2013-05-10 22:03:00,48.5,44.0,29.83,WNW,300,7.0,-999.0,84,-99.99,,,0.27,weatherlink.com 1.10,2013-05-11 02:03:00,
2013-05-10 22:18:00,48.0,43.0,29.83,NNW,339,11.0,-999.0,84,-99.99,,,0.27,weatherlink.com 1.10,2013-05-11 02:18:00,
2013-05-10 22:33:00,47.3,43.0,29.84,NW,311,9.0,-999.0,84,-99.99,,,0.27,weatherlink.com 1.10,2013-05-11 02:33:00,
2013-05-10 22:48:00,46.8,42.0,29.84,NNW,330,4.0,-999.0,84,-99.99,,,0.27,weatherlink.com 1.10,2013-05-11 02:48:00,
2013-05-10 23:03:00,46.7,42.0,29.84,NW,321,5.0,-999.0,84,-99.99,,,0.27,weatherlink.com 1.10,2013-05-11 03:03:00,
2013-05-10 23:18:00,46.6,42.0,29.84,NNW,327,3.0,-999.0,85,-99.99,,,0.27,weatherlink.com 1.10,2013-05-11 03:18:00,
2013-05-10 23:33:00,46.5,42.0,29.84,North,355,7.0,-999.0,85,-99.99,,,0.27,weatherlink.com 1.10,2013-05-11 03:33:00,
2013-05-10 23:48:00,46.4,43.0,29.85,NW,320,5.0,-999.0,86,-99.99,,,0.27,weatherlink.com 1.10,2013-05-11 03:48:00,